createdAt,value
2019-03-11T00:00:19.425Z,583
2019-03-11T00:01:21.853Z,583.2
2019-03-11T00:02:24.020Z,583
2019-03-11T00:03:26.178Z,582.9
2019-03-11T00:04:29.441Z,582.4
2019-03-11T00:05:31.718Z,582.7
2019-03-11T00:06:34.133Z,582.9
2019-03-11T00:07:36.550Z,582.4
2019-03-11T00:08:38.712Z,582.1
2019-03-11T00:09:41.145Z,582.6
2019-03-11T00:10:43.029Z,582
2019-03-11T00:11:45.168Z,581.5
2019-03-11T00:12:47.594Z,581.9
2019-03-11T00:13:49.771Z,581.9
2019-03-11T00:14:52.196Z,581.5
2019-03-11T00:15:54.359Z,581.7
2019-03-11T00:16:56.791Z,581
2019-03-11T00:17:58.946Z,580.7
2019-03-11T00:19:01.088Z,580.7
2019-03-11T00:20:03.530Z,580.8
2019-03-11T00:21:05.687Z,580.2
2019-03-11T00:22:08.115Z,580
2019-03-11T00:23:10.535Z,579.8
2019-03-11T00:24:12.679Z,579.9
2019-03-11T00:25:14.559Z,579.5
2019-03-11T00:26:16.735Z,579.3
2019-03-11T00:27:18.899Z,579.4
2019-03-11T00:28:21.051Z,578.8
2019-03-11T00:29:23.483Z,578.4
2019-03-11T00:30:25.919Z,577.8
2019-03-11T00:31:28.348Z,577.6
2019-03-11T00:32:30.791Z,578.2
2019-03-11T00:33:33.230Z,577.7
2019-03-11T00:34:35.669Z,578.1
2019-03-11T00:35:37.827Z,577.7
2019-03-11T00:36:39.969Z,578.2
2019-03-11T00:37:42.385Z,577.3
2019-03-11T00:38:44.516Z,577.9
2019-03-11T00:39:46.662Z,578.1
2019-03-11T00:40:48.545Z,577.9
2019-03-11T00:41:50.965Z,577.8
2019-03-11T00:42:53.121Z,576.9
2019-03-11T00:43:55.570Z,577.8
2019-03-11T00:44:57.503Z,577.7
2019-03-11T00:45:59.387Z,578.1
2019-03-11T00:47:01.816Z,577.2
2019-03-11T00:48:04.700Z,577.4
2019-03-11T00:49:06.855Z,577.1
2019-03-11T00:50:09.289Z,577.1
2019-03-11T00:51:11.497Z,577.4
2019-03-11T00:52:13.669Z,577.1
2019-03-11T00:53:16.180Z,577.2
2019-03-11T00:54:18.346Z,576.9
2019-03-11T00:55:20.782Z,577.4
2019-03-11T00:56:23.199Z,577.3
2019-03-11T00:57:25.628Z,577.7
2019-03-11T00:58:28.068Z,577.8
2019-03-11T00:59:30.001Z,578
2019-03-11T01:00:32.170Z,577.4
2019-03-11T01:01:34.599Z,577.4
2019-03-11T01:02:36.469Z,577.8
2019-03-11T01:03:38.639Z,577.3
2019-03-11T01:04:41.072Z,577.9
2019-03-11T01:05:43.509Z,577.5
2019-03-11T01:06:45.922Z,577.8
2019-03-11T01:07:48.087Z,577.8
2019-03-11T01:08:50.523Z,578.1
2019-03-11T01:09:52.969Z,577.2
2019-03-11T01:10:55.147Z,577.3
2019-03-11T01:11:57.301Z,577.8
2019-03-11T01:12:59.726Z,577.7
2019-03-11T01:14:02.153Z,577.5
2019-03-11T01:15:04.597Z,577.3
2019-03-11T01:16:07.027Z,577.4
2019-03-11T01:17:09.196Z,577.9
2019-03-11T01:18:11.629Z,577.1
2019-03-11T01:19:14.056Z,577.2
2019-03-11T01:20:16.200Z,577.8
2019-03-11T01:21:18.629Z,577.1
2019-03-11T01:22:21.066Z,577.2
2019-03-11T01:23:23.221Z,577.6
2019-03-11T01:24:25.664Z,576.9
2019-03-11T01:25:28.112Z,577.7
2019-03-11T01:26:30.263Z,577.1
2019-03-11T01:27:32.443Z,577.5
2019-03-11T01:28:34.333Z,577
2019-03-11T01:29:36.779Z,577.3
2019-03-11T01:30:38.939Z,577.4
2019-03-11T01:31:41.100Z,577.6
2019-03-11T01:32:43.527Z,577.7
2019-03-11T01:33:45.961Z,577.8
2019-03-11T01:34:48.388Z,577.1
2019-03-11T01:35:50.263Z,577.6
2019-03-11T01:36:52.424Z,577.4
2019-03-11T01:37:54.856Z,576.9
2019-03-11T01:38:56.729Z,577.4
2019-03-11T01:39:58.898Z,577.4
2019-03-11T01:41:01.332Z,577.7
2019-03-11T01:42:03.742Z,578.1
2019-03-11T01:43:05.619Z,577.7
2019-03-11T01:44:07.511Z,577.9
2019-03-11T01:45:09.947Z,578.3
2019-03-11T01:46:12.398Z,578.8
2019-03-11T01:47:14.826Z,579.1
2019-03-11T01:48:16.725Z,579.4
2019-03-11T01:49:19.485Z,579.3
2019-03-11T01:50:21.364Z,579.5
2019-03-11T01:51:23.520Z,580.1
2019-03-11T01:52:25.956Z,579.8
2019-03-11T01:53:27.847Z,580.7
2019-03-11T01:54:30.281Z,580.4
2019-03-11T01:55:32.443Z,580.3
2019-03-11T01:56:34.616Z,580.6
2019-03-11T01:57:37.057Z,580.3
2019-03-11T01:58:39.209Z,580.8
2019-03-11T01:59:41.633Z,580.7
2019-03-11T02:00:43.797Z,580.9
2019-03-11T02:02:52.659Z,581.1
2019-03-11T02:03:54.810Z,581.2
2019-03-11T02:04:57.269Z,581.2
2019-03-11T02:05:59.723Z,581.4
2019-03-11T02:07:02.148Z,581.3
2019-03-11T02:08:04.325Z,581.7
2019-03-11T02:09:06.755Z,581.3
2019-03-11T02:10:08.659Z,581.5
2019-03-11T02:11:11.091Z,581.6
2019-03-11T02:12:12.981Z,581.4
2019-03-11T02:13:14.862Z,581.9
2019-03-11T02:14:17.288Z,582.3
2019-03-11T02:15:19.136Z,582.4
2019-03-11T02:16:21.570Z,582.1
2019-03-11T02:17:23.740Z,582.7
2019-03-11T02:18:25.881Z,582.3
2019-03-11T02:19:28.301Z,582.6
2019-03-11T02:20:30.731Z,582.4
2019-03-11T02:21:33.171Z,582.9
2019-03-11T02:22:35.615Z,582.7
2019-03-11T02:23:38.053Z,583
2019-03-11T02:24:40.494Z,583.3
2019-03-11T02:25:42.937Z,583.3
2019-03-11T02:26:45.093Z,583.3
2019-03-11T02:27:47.513Z,583.4
2019-03-11T02:28:49.944Z,583.9
2019-03-11T02:29:52.377Z,583.8
2019-03-11T02:30:54.806Z,584.1
2019-03-11T02:31:56.960Z,584.5
2019-03-11T02:32:59.119Z,584.2
2019-03-11T02:34:01.588Z,584.6
2019-03-11T02:35:03.803Z,584.4
2019-03-11T02:36:05.958Z,584.8
2019-03-11T02:37:08.391Z,584.8
2019-03-11T02:38:10.542Z,585.7
2019-03-11T02:39:12.966Z,585.4
2019-03-11T02:40:15.492Z,585
2019-03-11T02:41:17.643Z,585.7
2019-03-11T02:42:20.118Z,585.9
2019-03-11T02:43:22.290Z,586
2019-03-11T02:44:24.438Z,586.3
2019-03-11T02:45:26.856Z,586.7
2019-03-11T02:46:29.298Z,586.3
2019-03-11T02:47:31.739Z,587.1
2019-03-11T02:48:34.178Z,586.8
2019-03-11T02:49:36.610Z,587
2019-03-11T02:50:39.076Z,587.7
2019-03-11T02:51:41.500Z,587.2
2019-03-11T02:52:43.643Z,588
2019-03-11T02:53:46.058Z,587.9
2019-03-11T02:54:47.945Z,587.9
2019-03-11T02:56:55.354Z,588.7
2019-03-11T02:57:57.847Z,588.9
2019-03-11T02:59:00.320Z,589.6
2019-03-11T03:00:02.502Z,589
2019-03-11T03:01:04.655Z,588.8
2019-03-11T03:02:07.077Z,588.5
2019-03-11T03:03:09.565Z,589.2
2019-03-11T03:04:12.176Z,589.1
2019-03-11T03:05:14.324Z,588.7
2019-03-11T03:06:16.463Z,589.1
2019-03-11T03:07:18.894Z,589.7
2019-03-11T03:08:21.042Z,589.1
2019-03-11T03:09:23.204Z,589.3
2019-03-11T03:10:25.089Z,588.9
2019-03-11T03:11:27.513Z,588.5
2019-03-11T03:12:30.003Z,589.4
2019-03-11T03:13:32.250Z,589.2
2019-03-11T03:14:34.405Z,589.4
2019-03-11T03:15:36.575Z,589.3
2019-03-11T03:16:38.730Z,589.2
2019-03-11T03:17:41.192Z,589.7
2019-03-11T03:18:43.634Z,589.5
2019-03-11T03:19:45.584Z,589.4
2019-03-11T03:20:48.061Z,590.1
2019-03-11T03:21:50.496Z,589.9
2019-03-11T03:22:52.640Z,590.4
2019-03-11T03:23:55.073Z,590.5
2019-03-11T03:24:57.273Z,590.2
2019-03-11T03:25:59.700Z,590.9
2019-03-11T03:27:01.903Z,590.1
2019-03-11T03:28:05.725Z,590.1
2019-03-11T03:29:08.211Z,590.3
2019-03-11T03:30:10.668Z,590.6
2019-03-11T03:31:12.871Z,590.4
2019-03-11T03:32:15.355Z,590.8
2019-03-11T03:33:16.980Z,590.9
2019-03-11T03:34:18.945Z,590.9
2019-03-11T03:35:21.120Z,590.7
2019-03-11T03:36:23.557Z,590.6
2019-03-11T03:37:26.027Z,590.9
2019-03-11T03:39:33.155Z,590.6
2019-03-11T03:40:35.313Z,590.6
2019-03-11T03:41:37.733Z,590.6
2019-03-11T03:42:40.006Z,590.3
2019-03-11T03:43:42.445Z,590.7
2019-03-11T03:44:44.598Z,590.8
2019-03-11T03:45:46.763Z,590.2
2019-03-11T03:46:48.636Z,590.4
2019-03-11T03:47:50.800Z,590.5
2019-03-11T03:48:53.982Z,590.7
2019-03-11T03:49:56.173Z,590.6
2019-03-11T03:50:58.338Z,590.8
2019-03-11T03:52:00.754Z,590.8
2019-03-11T03:53:02.677Z,590.6
2019-03-11T03:54:05.148Z,590.8
2019-03-11T03:55:07.574Z,590.5
2019-03-11T03:56:09.729Z,590.7
2019-03-11T03:57:12.151Z,590.4
2019-03-11T03:58:14.588Z,590.2
2019-03-11T03:59:17.031Z,590.8
2019-03-11T04:00:19.174Z,591
2019-03-11T04:01:21.074Z,590.7
2019-03-11T04:02:23.494Z,590.6
2019-03-11T04:03:25.930Z,590.4
2019-03-11T04:04:28.384Z,591
2019-03-11T04:05:30.812Z,591.2
2019-03-11T04:06:32.958Z,590.8
2019-03-11T04:07:35.098Z,591.1
2019-03-11T04:08:37.260Z,591.8
2019-03-11T04:09:39.420Z,591.8
2019-03-11T04:10:42.012Z,592.1
2019-03-11T04:11:44.446Z,591.9
2019-03-11T04:12:46.064Z,592
2019-03-11T04:13:48.489Z,591.6
2019-03-11T04:14:50.913Z,591.6
2019-03-11T04:15:53.065Z,591.4
2019-03-11T04:16:55.198Z,591.6
2019-03-11T04:17:57.406Z,592.2
2019-03-11T04:18:59.591Z,592.3
2019-03-11T04:20:02.385Z,592.1
2019-03-11T04:21:04.808Z,591.9
2019-03-11T04:22:07.269Z,591.9
2019-03-11T04:23:09.146Z,591.9
2019-03-11T04:24:11.586Z,592.6
2019-03-11T04:25:13.740Z,591.9
2019-03-11T04:26:16.175Z,592.2
2019-03-11T04:27:18.609Z,592
2019-03-11T04:28:21.046Z,592.3
2019-03-11T04:29:23.219Z,592.1
2019-03-11T04:30:25.438Z,591.8
2019-03-11T04:31:27.860Z,592.2
2019-03-11T04:32:30.309Z,592.5
2019-03-11T04:33:32.731Z,592.7
2019-03-11T04:35:39.597Z,593
2019-03-11T04:36:42.077Z,593
2019-03-11T04:37:45.119Z,593.6
2019-03-11T04:38:47.260Z,593.3
2019-03-11T04:39:49.160Z,593.7
2019-03-11T04:40:51.366Z,593.9
2019-03-11T04:41:53.232Z,594.1
2019-03-11T04:42:55.660Z,594.2
2019-03-11T04:43:57.818Z,593.6
2019-03-11T04:44:59.980Z,594.6
2019-03-11T04:46:02.410Z,594.7
2019-03-11T04:47:04.850Z,594.4
2019-03-11T04:48:07.272Z,595.1
2019-03-11T04:49:09.416Z,594.4
2019-03-11T04:50:11.544Z,594.9
2019-03-11T04:51:13.700Z,595.3
2019-03-11T04:52:15.854Z,595.4
2019-03-11T04:53:17.988Z,595
2019-03-11T04:54:20.416Z,595.2
2019-03-11T04:55:22.617Z,595.9
2019-03-11T04:56:25.040Z,595.4
2019-03-11T04:57:26.639Z,595.9
2019-03-11T04:58:28.797Z,595.4
2019-03-11T04:59:30.966Z,594.9
2019-03-11T05:00:33.129Z,594.9
2019-03-11T05:01:35.279Z,595.5
2019-03-11T05:02:37.717Z,595.2
2019-03-11T05:03:40.132Z,595.7
2019-03-11T05:04:42.566Z,596.1
2019-03-11T05:05:45.037Z,596.1
2019-03-11T05:06:47.471Z,596.1
2019-03-11T05:07:49.638Z,595.7
2019-03-11T05:08:51.561Z,596.1
2019-03-11T05:09:53.708Z,596.4
2019-03-11T05:10:55.930Z,596.6
2019-03-11T05:11:58.362Z,596.4
2019-03-11T05:13:00.593Z,597.3
2019-03-11T05:14:03.024Z,598
2019-03-11T05:15:05.208Z,597.9
2019-03-11T05:16:07.378Z,598.1
2019-03-11T05:17:09.612Z,598.3
2019-03-11T05:18:12.051Z,599
2019-03-11T05:19:14.185Z,598
2019-03-11T05:20:16.350Z,599.1
2019-03-11T05:21:18.479Z,599
2019-03-11T05:22:20.621Z,599.2
2019-03-11T05:23:23.042Z,599.3
2019-03-11T05:24:25.468Z,599.4
2019-03-11T05:25:27.908Z,599.5
2019-03-11T05:26:30.048Z,599.6
2019-03-11T05:27:32.250Z,599.6
2019-03-11T05:28:34.400Z,599.4
2019-03-11T05:29:36.257Z,600.1
2019-03-11T05:30:38.686Z,599.8
2019-03-11T05:31:40.858Z,600.7
2019-03-11T05:32:42.744Z,600.2
2019-03-11T05:33:45.172Z,599.7
2019-03-11T05:34:47.325Z,600.3
2019-03-11T05:35:49.501Z,600.5
2019-03-11T05:36:52.122Z,600.9
2019-03-11T05:37:54.567Z,600.7
2019-03-11T05:38:56.993Z,600.5
2019-03-11T05:39:59.413Z,600.6
2019-03-11T05:41:01.838Z,600.9
2019-03-11T05:42:03.992Z,601
2019-03-11T05:43:06.429Z,601.8
2019-03-11T05:44:08.866Z,600.7
2019-03-11T05:45:10.761Z,601
2019-03-11T05:46:13.980Z,601.8
2019-03-11T05:47:16.440Z,601.5
2019-03-11T05:48:18.859Z,601.5
2019-03-11T05:49:21.150Z,601.3
2019-03-11T05:50:23.346Z,601.7
2019-03-11T05:52:30.226Z,601.7
2019-03-11T05:53:32.662Z,602.2
2019-03-11T05:54:35.098Z,602
2019-03-11T05:55:37.017Z,601.7
2019-03-11T05:56:39.189Z,601.9
2019-03-11T05:57:41.619Z,602.3
2019-03-11T05:58:44.044Z,602.5
2019-03-11T05:59:46.213Z,602.4
2019-03-11T06:00:48.679Z,602.4
2019-03-11T06:01:50.563Z,602.9
2019-03-11T06:02:52.989Z,603.3
2019-03-11T06:03:55.464Z,603.1
2019-03-11T06:04:57.640Z,603.6
2019-03-11T06:06:00.081Z,603.8
2019-03-11T06:07:02.539Z,602.9
2019-03-11T06:08:04.968Z,604.4
2019-03-11T06:09:07.403Z,604.1
2019-03-11T06:10:09.831Z,604.7
2019-03-11T06:11:11.720Z,604.7
2019-03-11T06:12:14.206Z,604.7
2019-03-11T06:13:16.636Z,604.4
2019-03-11T06:14:19.126Z,605.5
2019-03-11T06:15:21.564Z,605.1
2019-03-11T06:16:23.725Z,604.8
2019-03-11T06:17:25.895Z,605.3
2019-03-11T06:18:28.333Z,605
2019-03-11T06:19:30.196Z,605.6
2019-03-11T06:20:32.118Z,605.8
2019-03-11T06:21:34.260Z,605
2019-03-11T06:22:36.408Z,605.2
2019-03-11T06:23:38.845Z,604.9
2019-03-11T06:24:41.276Z,604.7
2019-03-11T06:25:43.718Z,603.4
2019-03-11T06:26:45.861Z,604.7
2019-03-11T06:27:48.289Z,604.1
2019-03-11T06:28:50.178Z,604.5
2019-03-11T06:29:52.354Z,603.6
2019-03-11T06:30:54.787Z,603.5
2019-03-11T06:31:56.939Z,603.9
2019-03-11T06:32:59.367Z,603.6
2019-03-11T06:34:01.291Z,602.9
2019-03-11T06:35:03.722Z,603.3
2019-03-11T06:36:05.869Z,603.2
2019-03-11T06:37:08.040Z,603.3
2019-03-11T06:38:10.193Z,603.2
2019-03-11T06:39:12.386Z,604
2019-03-11T06:40:14.803Z,602.9
2019-03-11T06:41:16.998Z,603.2
2019-03-11T06:42:19.449Z,603.5
2019-03-11T06:43:22.070Z,603.2
2019-03-11T06:44:24.487Z,602.9
2019-03-11T06:45:26.653Z,603.6
2019-03-11T06:46:29.094Z,603
2019-03-11T06:47:31.520Z,603.1
2019-03-11T06:48:33.969Z,603.1
2019-03-11T06:49:36.403Z,603.2
2019-03-11T06:50:38.286Z,603.2
2019-03-11T06:51:40.448Z,603.6
2019-03-11T06:52:42.604Z,603.4
2019-03-11T06:53:44.464Z,602.7
2019-03-11T06:54:46.623Z,602.5
2019-03-11T06:55:48.507Z,603.5
2019-03-11T06:56:50.379Z,603.3
2019-03-11T06:57:52.826Z,602.4
2019-03-11T06:58:55.259Z,602
2019-03-11T06:59:57.687Z,601.1
2019-03-11T07:00:59.017Z,601.4
2019-03-11T07:02:00.886Z,601.1
2019-03-11T07:03:03.050Z,600.4
2019-03-11T07:04:05.495Z,600.9
2019-03-11T07:05:18.722Z,600.6
2019-03-11T07:06:14.532Z,600.2
2019-03-11T07:07:16.405Z,599.8
2019-03-11T07:08:18.285Z,600
2019-03-11T07:09:21.026Z,600.4
2019-03-11T07:10:23.258Z,601
2019-03-11T07:11:25.415Z,599.7
2019-03-11T07:12:27.838Z,599.1
2019-03-11T07:13:30.011Z,598.9
2019-03-11T07:14:32.170Z,599.3
2019-03-11T07:15:34.608Z,599.4
2019-03-11T07:16:37.041Z,600.6
2019-03-11T07:17:39.491Z,600.3
2019-03-11T07:18:41.915Z,598.2
2019-03-11T07:19:44.110Z,596.1
2019-03-11T07:20:46.531Z,595.3
2019-03-11T07:21:48.962Z,596
2019-03-11T07:22:51.389Z,595.8
2019-03-11T07:23:53.891Z,596.5
2019-03-11T07:24:55.757Z,595.4
2019-03-11T07:25:57.915Z,595.6
2019-03-11T07:27:00.343Z,595.2
2019-03-11T07:28:02.509Z,594.7
2019-03-11T07:29:04.950Z,593.7
2019-03-11T07:30:07.416Z,594.3
2019-03-11T07:31:09.849Z,593.4
2019-03-11T07:32:11.723Z,593.4
2019-03-11T07:33:14.157Z,593
2019-03-11T07:34:16.044Z,593.2
2019-03-11T07:35:18.471Z,592.7
2019-03-11T07:36:20.897Z,593.2
2019-03-11T07:37:23.797Z,593.6
2019-03-11T07:38:25.996Z,591.4
2019-03-11T07:39:28.150Z,593.2
2019-03-11T07:40:32.345Z,593.4
2019-03-11T07:41:34.765Z,593.8
2019-03-11T07:42:36.922Z,593.5
2019-03-11T07:43:38.785Z,593.3
2019-03-11T07:44:41.232Z,593.2
2019-03-11T07:45:43.659Z,592.4
2019-03-11T07:46:47.087Z,592.9
2019-03-11T07:47:49.229Z,592.8
2019-03-11T07:48:51.659Z,593.2
2019-03-11T07:49:54.089Z,593.4
2019-03-11T07:50:56.516Z,593.3
2019-03-11T07:51:58.378Z,593.2
2019-03-11T07:53:00.261Z,593.2
2019-03-11T07:54:02.690Z,593.7
2019-03-11T07:55:05.112Z,593.4
2019-03-11T07:56:07.287Z,592.7
2019-03-11T07:58:15.380Z,593.3
2019-03-11T07:59:17.804Z,593
2019-03-11T08:00:19.948Z,592.3
2019-03-11T08:01:22.102Z,591.1
2019-03-11T08:02:24.535Z,592.6
2019-03-11T08:03:26.700Z,593.1
2019-03-11T08:04:29.126Z,593.2
2019-03-11T08:05:31.727Z,593.3
2019-03-11T08:06:34.146Z,593.7
2019-03-11T08:07:36.584Z,593.9
2019-03-11T08:08:38.466Z,593.8
2019-03-11T08:09:40.987Z,593.3
2019-03-11T08:10:43.409Z,593.8
2019-03-11T08:11:45.623Z,592.7
2019-03-11T08:12:47.515Z,593.1
2019-03-11T08:13:49.930Z,593.2
2019-03-11T08:14:52.107Z,592.4
2019-03-11T08:15:54.547Z,592.8
2019-03-11T08:16:56.980Z,592.9
2019-03-11T08:17:59.408Z,592.7
2019-03-11T08:19:01.842Z,593
2019-03-11T08:20:03.989Z,593.4
2019-03-11T08:21:06.133Z,593.4
2019-03-11T08:22:08.555Z,593.9
2019-03-11T08:23:10.979Z,592.6
2019-03-11T08:24:13.129Z,592.5
2019-03-11T08:25:15.578Z,593.7
2019-03-11T08:26:17.746Z,593
2019-03-11T08:27:19.901Z,593.3
2019-03-11T08:28:22.350Z,593.1
2019-03-11T08:29:24.785Z,593.5
2019-03-11T08:30:27.207Z,594.3
2019-03-11T08:31:29.349Z,593.7
2019-03-11T08:32:31.489Z,592.9
2019-03-11T08:33:33.919Z,593
2019-03-11T08:34:36.076Z,592.5
2019-03-11T08:35:38.233Z,593.3
2019-03-11T08:36:40.655Z,593.7
2019-03-11T08:37:43.090Z,594.4
2019-03-11T08:38:45.251Z,595.2
2019-03-11T08:39:47.699Z,594.7
2019-03-11T08:40:50.147Z,594.5
2019-03-11T08:41:52.289Z,595.4
2019-03-11T08:42:54.481Z,594.2
2019-03-11T08:43:56.631Z,594.6
2019-03-11T08:44:58.787Z,594.9
2019-03-11T08:46:00.662Z,595.3
2019-03-11T08:47:02.564Z,595.6
2019-03-11T08:48:04.726Z,595.8
2019-03-11T08:49:07.166Z,594.8
2019-03-11T08:50:09.317Z,595.8
2019-03-11T08:51:11.479Z,595.3
2019-03-11T08:52:13.381Z,595
2019-03-11T08:53:15.523Z,594.6
2019-03-11T08:54:17.677Z,595.3
2019-03-11T08:55:20.095Z,594.8
2019-03-11T08:56:22.520Z,594.4
2019-03-11T08:57:24.656Z,595.2
2019-03-11T08:58:26.815Z,594.5
2019-03-11T08:59:28.681Z,594.9
2019-03-11T09:00:31.103Z,595.3
2019-03-11T09:01:32.425Z,595.3
2019-03-11T09:02:34.586Z,595.1
2019-03-11T09:03:36.767Z,595.2
2019-03-11T09:04:39.211Z,595.2
2019-03-11T09:05:41.372Z,595.4
2019-03-11T09:06:43.530Z,595.8
2019-03-11T09:07:45.442Z,595.9
2019-03-11T09:08:47.867Z,596.2
2019-03-11T09:09:50.019Z,596.1
2019-03-11T09:10:52.190Z,595.7
2019-03-11T09:11:54.643Z,595.8
2019-03-11T09:12:57.070Z,595.7
2019-03-11T09:13:58.981Z,595.8
2019-03-11T09:15:01.150Z,595.3
2019-03-11T09:16:02.774Z,595
2019-03-11T09:17:05.196Z,594.6
2019-03-11T09:18:07.626Z,594.1
2019-03-11T09:19:09.790Z,594
2019-03-11T09:20:11.398Z,593.7
2019-03-11T09:21:13.834Z,593.1
2019-03-11T09:22:15.985Z,592.9
2019-03-11T09:23:18.202Z,592.7
2019-03-11T09:24:21.358Z,591.8
2019-03-11T09:25:23.517Z,591.4
2019-03-11T09:26:25.666Z,592.3
2019-03-11T09:27:27.601Z,592.4
2019-03-11T09:28:30.385Z,591.9
2019-03-11T09:29:32.817Z,592.1
2019-03-11T09:30:35.251Z,592.8
2019-03-11T09:31:37.688Z,592.3
2019-03-11T09:32:39.838Z,592.3
2019-03-11T09:33:42.676Z,592.7
2019-03-11T09:34:44.822Z,592.9
2019-03-11T09:35:46.967Z,594.1
2019-03-11T09:36:49.119Z,594.5
2019-03-11T09:37:51.301Z,594.4
2019-03-11T09:38:53.185Z,594.8
2019-03-11T09:39:55.610Z,594.9
2019-03-11T09:40:57.765Z,594.3
2019-03-11T09:41:59.911Z,594.4
2019-03-11T09:43:02.335Z,593.8
2019-03-11T09:44:04.755Z,593.4
2019-03-11T09:45:07.193Z,593.2
2019-03-11T09:46:09.078Z,593
2019-03-11T09:47:11.524Z,592.9
2019-03-11T09:48:13.952Z,592.9
2019-03-11T09:49:15.839Z,592.5
2019-03-11T09:50:18.319Z,592.7
2019-03-11T09:51:20.796Z,592.4
2019-03-11T09:52:23.229Z,592
2019-03-11T09:53:25.371Z,592.3
2019-03-11T09:54:27.811Z,591.9
2019-03-11T09:55:30.261Z,591.7
2019-03-11T09:57:38.068Z,591.5
2019-03-11T09:58:40.496Z,591.6
2019-03-11T09:59:42.932Z,591.5
2019-03-11T10:00:45.374Z,591.2
2019-03-11T10:01:47.801Z,590.7
2019-03-11T10:03:54.698Z,590.4
2019-03-11T10:04:57.122Z,590.1
2019-03-11T10:05:59.280Z,589.7
2019-03-11T10:07:01.432Z,589.1
2019-03-11T10:08:03.845Z,588.3
2019-03-11T10:09:06.012Z,587.6
2019-03-11T10:10:08.491Z,587
2019-03-11T10:11:10.650Z,586.7
2019-03-11T10:12:13.089Z,586.7
2019-03-11T10:13:15.520Z,586.2
2019-03-11T10:14:17.941Z,586
2019-03-11T10:15:20.095Z,585.8
2019-03-11T10:16:22.539Z,585.5
2019-03-11T10:17:24.696Z,585.8
2019-03-11T10:18:26.851Z,585.8
2019-03-11T10:19:29.056Z,584.9
2019-03-11T10:20:31.484Z,584.6
2019-03-11T10:21:33.658Z,585.3
2019-03-11T10:22:36.085Z,585.9
2019-03-11T10:23:38.508Z,585.1
2019-03-11T10:24:40.932Z,584.2
2019-03-11T10:25:43.362Z,584
2019-03-11T10:26:45.806Z,584.4
2019-03-11T10:27:47.983Z,584.6
2019-03-11T10:28:50.403Z,584.5
2019-03-11T10:29:52.840Z,584.3
2019-03-11T10:30:55.002Z,583.7
2019-03-11T10:31:56.890Z,583.4
2019-03-11T10:32:59.320Z,583.1
2019-03-11T10:34:01.474Z,583.2
2019-03-11T10:35:03.927Z,583.7
2019-03-11T10:36:06.352Z,583
2019-03-11T10:37:08.488Z,582.1
2019-03-11T10:38:10.919Z,582.1
2019-03-11T10:39:13.349Z,581.7
2019-03-11T10:40:15.294Z,582.1
2019-03-11T10:41:17.459Z,582.3
2019-03-11T10:42:19.607Z,581.9
2019-03-11T10:43:21.756Z,582
2019-03-11T10:44:24.182Z,581.6
2019-03-11T10:46:31.602Z,581
2019-03-11T10:47:34.014Z,581.1
2019-03-11T10:49:41.420Z,581.3
2019-03-11T10:50:44.029Z,581.5
2019-03-11T10:51:46.161Z,581.1
2019-03-11T10:52:48.590Z,580.9
2019-03-11T10:53:51.018Z,580.8
2019-03-11T10:54:52.902Z,580.6
2019-03-11T10:55:55.045Z,580.7
2019-03-11T10:56:57.487Z,581.2
2019-03-11T10:57:59.912Z,580.7
2019-03-11T10:59:02.335Z,580.2
2019-03-11T11:00:04.786Z,580.3
2019-03-11T11:01:09.516Z,580.1
2019-03-11T11:02:14.121Z,580.2
2019-03-11T11:03:16.552Z,580
2019-03-11T11:04:18.995Z,579.5
2019-03-11T11:05:21.130Z,579.4
2019-03-11T11:06:23.571Z,579.2
2019-03-11T11:07:26.003Z,579.1
2019-03-11T11:08:28.220Z,579.8
2019-03-11T11:09:30.385Z,580
2019-03-11T11:10:32.541Z,580
2019-03-11T11:12:40.940Z,580.9
2019-03-11T11:13:43.382Z,581.2
2019-03-11T11:14:45.818Z,580.5
2019-03-11T11:15:47.975Z,580.8
2019-03-11T11:16:50.120Z,580.9
2019-03-11T11:17:52.572Z,581.2
2019-03-11T11:18:54.997Z,581.3
2019-03-11T11:21:02.156Z,581.6
2019-03-11T11:22:04.602Z,581.3
2019-03-11T11:23:07.030Z,581.2
2019-03-11T11:24:09.470Z,581.3
2019-03-11T11:25:11.626Z,581.9
2019-03-11T11:26:14.044Z,581.9
2019-03-11T11:27:15.952Z,581.6
2019-03-11T11:28:18.218Z,582.3
2019-03-11T11:29:20.665Z,582.3
2019-03-11T11:30:23.098Z,582.2
2019-03-11T11:31:25.540Z,581.9
2019-03-11T11:32:27.966Z,582.4
2019-03-11T11:33:30.111Z,582.3
2019-03-11T11:34:31.700Z,582.5
2019-03-11T11:35:34.140Z,582.8
2019-03-11T11:36:36.903Z,582.5
2019-03-11T11:37:39.329Z,582.1
2019-03-11T11:38:41.764Z,582.5
2019-03-11T11:39:43.966Z,581.3
2019-03-11T11:40:46.415Z,581.8
2019-03-11T11:41:48.847Z,581.9
2019-03-11T11:42:51.274Z,582.5
2019-03-11T11:43:53.441Z,582.4
2019-03-11T11:44:55.879Z,582.8
2019-03-11T11:45:58.061Z,582.6
2019-03-11T11:47:00.493Z,582.3
2019-03-11T11:48:02.669Z,582.7
2019-03-11T11:49:05.088Z,582.5
2019-03-11T11:50:06.963Z,582.8
2019-03-11T11:51:09.394Z,582.6
2019-03-11T11:52:11.824Z,582.9
2019-03-11T11:53:14.249Z,583.5
2019-03-11T11:54:16.424Z,583.1
2019-03-11T11:55:18.869Z,582.9
2019-03-11T11:56:21.307Z,583.3
2019-03-11T11:57:23.451Z,583.5
2019-03-11T11:58:25.621Z,583.4
2019-03-11T11:59:28.109Z,583.4
2019-03-11T12:00:30.266Z,583.8
2019-03-11T12:01:32.701Z,583.8
2019-03-11T12:02:35.132Z,584
2019-03-11T12:03:37.301Z,583.5
2019-03-11T12:04:39.192Z,584.4
2019-03-11T12:05:41.632Z,584.2
2019-03-11T12:06:44.049Z,584.4
2019-03-11T12:07:46.698Z,584.3
2019-03-11T12:08:48.912Z,584.4
2019-03-11T12:09:51.346Z,584.6
2019-03-11T12:10:53.491Z,584.3
2019-03-11T12:11:55.364Z,584.5
2019-03-11T12:12:57.531Z,585
2019-03-11T12:13:59.968Z,585.5
2019-03-11T12:15:02.484Z,585.4
2019-03-11T12:16:04.648Z,585.6
2019-03-11T12:17:06.531Z,586
2019-03-11T12:18:08.407Z,585.4
2019-03-11T12:19:10.564Z,585.2
2019-03-11T12:20:12.729Z,585.3
2019-03-11T12:21:15.164Z,585.5
2019-03-11T12:22:17.608Z,586
2019-03-11T12:23:19.775Z,586
2019-03-11T12:24:22.214Z,586.1
2019-03-11T12:25:24.461Z,586.2
2019-03-11T12:26:26.903Z,585.5
2019-03-11T12:27:29.348Z,585.7
2019-03-11T12:28:31.774Z,585.9
2019-03-11T12:29:33.916Z,586.1
2019-03-11T12:30:36.073Z,586.3
2019-03-11T12:31:38.501Z,586.1
2019-03-11T12:32:40.934Z,586
2019-03-11T12:33:43.376Z,586.4
2019-03-11T12:34:45.596Z,586.1
2019-03-11T12:35:48.008Z,585.8
2019-03-11T12:36:50.440Z,586
2019-03-11T12:37:52.610Z,586
2019-03-11T12:38:54.773Z,586.1
2019-03-11T12:39:57.200Z,585.6
2019-03-11T12:40:58.830Z,586.8
2019-03-11T12:42:01.269Z,586.2
2019-03-11T12:43:03.697Z,586.1
2019-03-11T12:44:05.874Z,586.9
2019-03-11T12:45:08.297Z,586
2019-03-11T12:46:10.224Z,585.9
2019-03-11T12:47:12.702Z,586.4
2019-03-11T12:48:14.592Z,587.1
2019-03-11T12:49:16.213Z,587
2019-03-11T12:50:18.072Z,587
2019-03-11T12:51:20.509Z,587.6
2019-03-11T12:52:22.390Z,586.9
2019-03-11T12:53:24.596Z,586.3
2019-03-11T12:54:26.476Z,586.5
2019-03-11T12:55:28.902Z,586.6
2019-03-11T12:56:31.342Z,586.4
2019-03-11T12:57:33.501Z,586.6
2019-03-11T12:59:42.802Z,586.5
2019-03-11T13:00:44.958Z,586.7
2019-03-11T13:01:47.130Z,586.5
2019-03-11T13:02:49.282Z,587.4
2019-03-11T13:03:51.709Z,586.7
2019-03-11T13:04:53.600Z,587.2
2019-03-11T13:05:56.024Z,587.3
2019-03-11T13:06:58.451Z,587.1
2019-03-11T13:08:00.882Z,587.2
2019-03-11T13:09:03.047Z,587.7
2019-03-11T13:10:06.032Z,588.1
2019-03-11T13:11:08.168Z,588
2019-03-11T13:12:10.592Z,587.4
2019-03-11T13:13:13.017Z,587.8
2019-03-11T13:14:15.460Z,587.4
2019-03-11T13:15:17.902Z,587.3
2019-03-11T13:16:20.050Z,587.3
2019-03-11T13:17:22.491Z,587.1
2019-03-11T13:18:25.313Z,586.8
2019-03-11T13:19:27.732Z,587.3
2019-03-11T13:20:30.163Z,587.1
2019-03-11T13:21:32.580Z,586.3
2019-03-11T13:22:34.485Z,586.6
2019-03-11T13:23:36.658Z,586.4
2019-03-11T13:24:38.271Z,586.9
2019-03-11T13:25:40.703Z,587
2019-03-11T13:26:43.126Z,586.2
2019-03-11T13:27:44.993Z,586.3
2019-03-11T13:28:47.426Z,586
2019-03-11T13:29:49.858Z,586
2019-03-11T13:30:52.033Z,586.5
2019-03-11T13:31:54.190Z,586.9
2019-03-11T13:32:56.614Z,586.2
2019-03-11T13:33:58.772Z,586.3
2019-03-11T13:35:00.938Z,586.3
2019-03-11T13:36:03.363Z,586.2
2019-03-11T13:37:05.807Z,585.7
2019-03-11T13:38:08.226Z,585.3
2019-03-11T13:39:10.653Z,585.7
2019-03-11T13:40:13.085Z,585.6
2019-03-11T13:41:15.236Z,585.7